Terminal Aerodrome Forecast
Issued by NWS Atlanta, GA

Home | Current Version | Previous Version | Text Only | Print | Product List | Glossary On
Versions: 1 2 3 4 5 6 7 8 9 10 11 12 13 14 15 16 17 18 19 20 21 22 23 24 25 26 27 28 29 30 31 32 33 34 35 36 37 38
701
FTUS42 KFFC 302328
TAFATL
TAF
KATL 302328Z 3100/0106 23007KT P6SM SCT040 SCT120
     FM310100 24006KT P6SM SCT060
     FM311100 26005KT P6SM BKN035
     FM311800 23009KT P6SM BKN045 PROB30 3118/3124 TSRA OVC030CB
     FM010100 24005KT P6SM SCT040=

USA.gov is the U.S. government's official web portal to all federal, state and local government web resources and services.